Time;durP1;ratioP1;P1;durP2;ratioP2;P2;SDS_P1;SDS_P2;PMS_P1;PMS_P2;Temp;Humidity;BMP_temperature;BMP_pressure;BME280_temperature;BME280_humidity;BME280_pressure;Samples;Min_cycle;Max_cycle;Signal;HPM_P1;HPM_P2
2020/12/12 00:02:23;;;;;;;0.30;0.30;;;;;;;-1.82;92.64;100943.58;1727850;83;21483;-49
2020/12/12 00:04:51;;;;;;;0.10;0.10;;;;;;;-1.83;92.53;100953.47;1727565;82;21182;-48
2020/12/12 00:07:18;;;;;;;0.10;0.10;;;;;;;-1.85;92.36;100939.95;1727730;81;21156;-48
2020/12/12 00:09:46;;;;;;;0.20;0.20;;;;;;;-1.85;92.17;100948.80;1727574;83;21123;-48
2020/12/12 00:12:14;;;;;;;0.42;0.42;;;;;;;-1.86;92.10;100946.30;1728009;82;21143;-48
2020/12/12 00:14:41;;;;;;;0.10;0.10;;;;;;;-1.88;92.07;100943.83;1727942;83;21127;-48
2020/12/12 00:17:09;;;;;;;0.55;0.55;;;;;;;-1.89;91.63;100948.84;1728058;83;21451;-49
2020/12/12 00:19:37;;;;;;;0.10;0.10;;;;;;;-1.90;91.48;100945.00;1727890;83;21150;-48
2020/12/12 00:22:05;;;;;;;0.10;0.10;;;;;;;-1.91;91.43;100940.16;1727940;83;21146;-50
2020/12/12 00:24:32;;;;;;;0.10;0.10;;;;;;;-1.94;91.25;100947.23;1728063;83;21107;-48
2020/12/12 00:27:00;;;;;;;0.20;0.20;;;;;;;-1.94;91.31;100936.52;1727950;83;21179;-49
2020/12/12 00:29:27;;;;;;;0.10;0.10;;;;;;;-1.96;91.15;100937.20;1727867;83;21103;-49
2020/12/12 00:31:57;;;;;;;0.10;0.10;;;;;;;-1.98;91.18;100928.52;1727943;83;21167;-49
2020/12/12 00:34:26;;;;;;;0.25;0.25;;;;;;;-1.99;91.03;100925.02;1727940;83;21546;-49
2020/12/12 00:36:55;;;;;;;0.10;0.10;;;;;;;-2.00;90.99;100931.91;1727896;83;21590;-50
2020/12/12 00:39:22;;;;;;;0.20;0.20;;;;;;;-2.03;90.81;100935.80;1727990;83;21143;-49
2020/12/12 00:41:50;;;;;;;0.08;0.08;;;;;;;-2.08;90.72;100925.29;1727966;83;21163;-50
2020/12/12 00:44:17;;;;;;;0.10;0.10;;;;;;;-2.10;90.54;100922.81;1727910;83;21182;-48
2020/12/12 00:46:45;;;;;;;0.33;0.33;;;;;;;-2.14;90.46;100916.16;1727754;83;21135;-50
2020/12/12 00:49:14;;;;;;;0.30;0.20;;;;;;;-2.18;90.51;100921.06;1727981;82;21126;-48
2020/12/12 00:51:42;;;;;;;0.15;0.15;;;;;;;-2.20;90.49;100915.05;1727847;83;21150;-49
2020/12/12 00:54:09;;;;;;;0.10;0.10;;;;;;;-2.24;90.30;100911.59;1727856;83;21182;-49
2020/12/12 00:56:37;;;;;;;0.10;0.10;;;;;;;-2.26;90.22;100923.80;1727871;82;21497;-50
2020/12/12 00:59:05;;;;;;;6.40;0.93;;;;;;;-2.28;90.12;100911.11;1727864;83;21131;-49
2020/12/12 01:01:32;;;;;;;0.90;0.35;;;;;;;-2.29;90.03;100916.15;1727841;83;21135;-50
2020/12/12 01:04:00;;;;;;;0.10;0.10;;;;;;;-2.29;90.06;100910.80;1728018;83;21099;-48
2020/12/12 01:06:28;;;;;;;0.10;0.10;;;;;;;-2.29;90.15;100915.33;1728076;83;21138;-49
2020/12/12 01:08:55;;;;;;;0.30;0.30;;;;;;;-2.30;90.14;100913.64;1727923;82;21562;-49
2020/12/12 01:11:23;;;;;;;0.30;0.30;;;;;;;-2.31;90.11;100921.36;1727619;83;21171;-48
2020/12/12 01:13:51;;;;;;;0.37;0.37;;;;;;;-2.32;90.11;100919.20;1727947;83;21166;-48
2020/12/12 01:16:20;;;;;;;0.47;0.45;;;;;;;-2.34;90.03;100913.20;1727932;82;21182;-49
2020/12/12 01:18:48;;;;;;;0.10;0.10;;;;;;;-2.35;89.84;100904.82;1728042;83;21135;-49
2020/12/12 01:21:18;;;;;;;0.85;0.85;;;;;;;-2.37;89.94;100900.19;1727847;83;21170;-49
2020/12/12 01:23:46;;;;;;;0.30;0.30;;;;;;;-2.38;89.82;100899.84;1727825;82;21183;-49
2020/12/12 01:26:14;;;;;;;0.45;0.45;;;;;;;-2.40;89.60;100897.85;1727761;83;21115;-49
2020/12/12 01:28:42;;;;;;;0.20;0.20;;;;;;;-2.42;89.52;100910.61;1727861;83;21521;-50
2020/12/12 01:31:13;;;;;;;0.60;0.60;;;;;;;-2.44;89.53;100912.12;1727884;83;21146;-49
2020/12/12 01:33:41;;;;;;;0.17;0.17;;;;;;;-2.44;89.67;100913.45;1727949;83;21175;-49
2020/12/12 01:36:08;;;;;;;0.10;0.10;;;;;;;-2.46;89.45;100910.12;1727752;83;20985;-50
2020/12/12 01:38:36;;;;;;;0.10;0.10;;;;;;;-2.47;89.23;100907.14;1727931;83;21175;-48
2020/12/12 01:41:03;;;;;;;2.83;0.33;;;;;;;-2.47;89.42;100907.14;1727768;83;21124;-49
2020/12/12 01:43:31;;;;;;;0.10;0.10;;;;;;;-2.47;89.50;100913.00;1727955;83;21163;-48
2020/12/12 01:45:59;;;;;;;0.10;0.10;;;;;;;-2.49;89.47;100907.00;1727853;83;21463;-49
2020/12/12 01:48:26;;;;;;;0.30;0.30;;;;;;;-2.52;89.22;100916.22;1727867;83;21502;-48
2020/12/12 01:50:54;;;;;;;0.28;0.28;;;;;;;-2.56;89.21;100904.21;1713536;83;21140;-49
2020/12/12 01:53:26;;;;;;;0.37;0.37;;;;;;;-2.59;88.94;100909.94;1689927;83;21119;-48
2020/12/12 01:55:51;;;;;;;0.40;0.40;;;;;;;-2.61;89.01;100912.78;1727753;82;21104;-50
2020/12/12 01:58:19;;;;;;;0.60;0.60;;;;;;;-2.64;89.15;100911.81;1727859;82;21139;-49
2020/12/12 02:00:47;;;;;;;0.00;0.00;;;;;;;-2.66;89.20;100907.14;1727783;83;21127;-49
2020/12/12 02:03:15;;;;;;;0.10;0.10;;;;;;;-2.67;89.17;100904.16;1727855;83;21119;-50
2020/12/12 02:05:45;;;;;;;0.23;0.23;;;;;;;-2.69;89.10;100910.19;1713263;83;21680;-49
2020/12/12 02:08:17;;;;;;;0.00;0.00;;;;;;;-2.71;89.00;100906.86;1727762;83;21131;-50
2020/12/12 02:10:46;;;;;;;0.62;0.62;;;;;;;-2.71;89.11;100911.39;1727638;81;21151;-49
2020/12/12 02:13:16;;;;;;;0.00;0.00;;;;;;;-2.72;89.13;100905.69;1698396;84;21166;-50
2020/12/12 02:15:44;;;;;;;0.55;0.55;;;;;;;-2.73;89.09;100907.54;1709262;83;21135;-48
2020/12/12 02:18:19;;;;;;;0.10;0.10;;;;;;;-2.73;89.05;100904.87;1727658;83;21133;-49
2020/12/12 02:20:58;;;;;;;0.10;0.10;;;;;;;-2.75;88.83;100903.38;1727615;81;21832;-49
2020/12/12 02:23:27;;;;;;;0.10;0.10;;;;;;;-2.76;88.54;100907.08;1727686;82;21139;-48
2020/12/12 02:25:55;;;;;;;0.10;0.10;;;;;;;-2.77;88.48;100900.05;1727573;82;21407;-48
2020/12/12 02:28:26;;;;;;;0.13;0.13;;;;;;;-2.82;88.52;100897.44;1727737;83;21459;-48
2020/12/12 02:30:53;;;;;;;0.20;0.20;;;;;;;-2.81;88.55;100898.26;1727586;82;21119;-48
2020/12/12 02:33:21;;;;;;;0.20;0.20;;;;;;;-2.82;88.62;100897.91;1727657;83;21174;-49
2020/12/12 02:35:48;;;;;;;0.03;0.03;;;;;;;-2.85;88.64;100899.11;1727645;83;21135;-49
2020/12/12 02:38:16;;;;;;;0.10;0.10;;;;;;;-2.84;88.61;100898.12;1727539;83;21553;-48
2020/12/12 02:40:43;;;;;;;0.30;0.30;;;;;;;-2.84;88.52;100895.95;1727425;82;21127;-50
2020/12/12 02:43:12;;;;;;;0.10;0.10;;;;;;;-2.85;88.53;100892.42;1727559;83;21178;-48
2020/12/12 02:45:43;;;;;;;0.42;0.42;;;;;;;-2.86;88.59;100891.28;1727595;82;21127;-49
2020/12/12 02:48:11;;;;;;;0.10;0.10;;;;;;;-2.87;88.57;100897.15;1727832;83;21197;-50
2020/12/12 02:50:41;;;;;;;0.13;0.13;;;;;;;-2.87;88.35;100895.81;1727499;82;21143;-49
2020/12/12 02:53:09;;;;;;;0.40;0.40;;;;;;;-2.87;88.25;100892.28;1727663;82;21123;-50
2020/12/12 02:55:36;;;;;;;0.10;0.10;;;;;;;-2.88;88.37;100895.98;1727492;82;21669;-48
2020/12/12 02:58:04;;;;;;;0.10;0.10;;;;;;;-2.87;88.28;100894.95;1727524;83;21151;-49
2020/12/12 03:00:32;;;;;;;0.10;0.10;;;;;;;-2.90;87.98;100885.96;1727396;82;21656;-50
2020/12/12 03:02:59;;;;;;;0.10;0.10;;;;;;;-2.92;87.79;100880.78;1727588;83;21190;-48
2020/12/12 03:05:27;;;;;;;0.25;0.25;;;;;;;-2.92;87.79;100883.45;1727530;82;21151;-48
2020/12/12 03:07:54;;;;;;;0.10;0.10;;;;;;;-2.96;87.76;100873.33;1727674;83;21140;-48
2020/12/12 03:10:22;;;;;;;0.10;0.10;;;;;;;-2.98;87.67;100874.01;1727606;83;21167;-49
2020/12/12 03:12:50;;;;;;;0.10;0.10;;;;;;;-2.99;87.86;100873.66;1728097;83;21186;-49
2020/12/12 03:15:17;;;;;;;1.07;0.37;;;;;;;-2.98;87.99;100875.34;1727997;83;21183;-50
2020/12/12 03:17:45;;;;;;;0.20;0.20;;;;;;;-2.99;87.93;100879.02;1728061;83;21111;-48
2020/12/12 03:20:13;;;;;;;0.10;0.10;;;;;;;-2.99;87.99;100875.00;1728012;82;21150;-49
2020/12/12 03:22:41;;;;;;;0.33;0.33;;;;;;;-3.00;87.93;100872.84;1728060;83;21130;-49
2020/12/12 03:25:08;;;;;;;0.50;0.50;;;;;;;-3.01;87.87;100873.03;1728089;83;21147;-48
2020/12/12 03:27:36;;;;;;;0.00;0.00;;;;;;;-3.05;87.95;100870.70;1727939;83;21589;-48
2020/12/12 03:30:04;;;;;;;0.70;0.30;;;;;;;-3.07;87.99;100872.72;1727956;83;21646;-50
2020/12/12 03:32:32;;;;;;;0.10;0.10;;;;;;;-3.09;87.80;100876.10;1728004;83;21131;-48
2020/12/12 03:35:00;;;;;;;0.35;0.35;;;;;;;-3.11;87.64;100877.29;1728001;82;21130;-50
2020/12/12 03:37:28;;;;;;;0.30;0.30;;;;;;;-3.14;87.66;100871.80;1727958;83;21621;-49
2020/12/12 03:39:55;;;;;;;0.80;0.35;;;;;;;-3.17;87.74;100862.78;1727939;83;21135;-48
2020/12/12 03:42:23;;;;;;;0.10;0.10;;;;;;;-3.19;87.65;100868.83;1727888;83;21128;-48
2020/12/12 03:44:50;;;;;;;0.25;0.25;;;;;;;-3.23;87.57;100863.51;1728010;82;21126;-48
2020/12/12 03:47:18;;;;;;;0.20;0.20;;;;;;;-3.23;87.74;100866.69;1728052;83;21175;-49
2020/12/12 03:49:45;;;;;;;0.05;0.05;;;;;;;-3.23;87.89;100864.84;1727923;83;21202;-48
2020/12/12 03:52:14;;;;;;;0.42;0.42;;;;;;;-3.24;87.94;100865.84;1727860;83;21160;-48
2020/12/12 03:54:42;;;;;;;0.10;0.10;;;;;;;-3.23;87.82;100871.53;1727948;83;21712;-50
2020/12/12 03:57:10;;;;;;;0.00;0.00;;;;;;;-3.23;87.83;100865.36;1727954;83;21159;-48
2020/12/12 03:59:37;;;;;;;0.72;0.72;;;;;;;-3.25;87.89;100864.19;1727948;83;21138;-50
2020/12/12 04:02:05;;;;;;;0.13;0.13;;;;;;;-3.25;87.97;100859.66;1727907;83;21146;-49
2020/12/12 04:04:33;;;;;;;0.10;0.10;;;;;;;-3.25;88.10;100858.84;1727917;83;21586;-49
2020/12/12 04:07:01;;;;;;;0.10;0.10;;;;;;;-3.25;88.15;100852.16;1727867;83;21187;-49
2020/12/12 04:09:28;;;;;;;0.10;0.10;;;;;;;-3.24;88.17;100844.45;1728013;83;21135;-51
2020/12/12 04:11:56;;;;;;;0.10;0.10;;;;;;;-3.25;88.21;100850.31;1725682;83;21139;-48
2020/12/12 04:14:24;;;;;;;0.10;0.10;;;;;;;-3.24;88.27;100849.80;1724236;83;21131;-50
2020/12/12 04:16:51;;;;;;;0.10;0.10;;;;;;;-3.24;88.32;100847.13;1701618;84;21539;-48
2020/12/12 04:19:19;;;;;;;1.17;0.50;;;;;;;-3.22;88.34;100842.44;1701559;84;21126;-48
2020/12/12 04:21:47;;;;;;;0.10;0.10;;;;;;;-3.22;88.46;100853.13;1672066;84;21509;-49
2020/12/12 04:24:14;;;;;;;0.33;0.33;;;;;;;-3.22;88.49;100851.80;1724380;82;21167;-48
2020/12/12 04:26:42;;;;;;;0.10;0.10;;;;;;;-3.21;88.51;100852.14;1724221;83;21601;-48
2020/12/12 04:29:10;;;;;;;0.10;0.10;;;;;;;-3.22;88.57;100853.13;1724353;83;21174;-49
2020/12/12 04:31:37;;;;;;;0.10;0.10;;;;;;;-3.19;88.53;100852.80;1724292;83;21174;-48
2020/12/12 04:34:06;;;;;;;0.00;0.00;;;;;;;-3.19;88.47;100848.78;1724342;82;21119;-49
2020/12/12 04:36:34;;;;;;;0.10;0.10;;;;;;;-3.22;88.36;100851.80;1724416;83;21570;-48
2020/12/12 04:39:02;;;;;;;0.10;0.10;;;;;;;-3.22;88.36;100846.45;1724213;83;21218;-48
2020/12/12 04:41:31;;;;;;;0.10;0.10;;;;;;;-3.25;88.12;100853.50;1724209;82;21143;-50
2020/12/12 04:43:59;;;;;;;0.00;0.00;;;;;;;-3.25;88.27;100848.97;1705800;83;21443;-48
2020/12/12 04:46:28;;;;;;;0.82;0.82;;;;;;;-3.25;88.23;100849.48;1729752;82;21128;-50
2020/12/12 04:48:56;;;;;;;0.25;0.25;;;;;;;-3.26;88.34;100851.34;1724268;83;21119;-49
2020/12/12 04:51:24;;;;;;;0.95;0.95;;;;;;;-3.26;88.37;100834.47;1724249;83;21167;-51
2020/12/12 04:53:57;;;;;;;0.20;0.20;;;;;;;-3.27;88.38;100844.82;1729782;82;21159;-48
2020/12/12 04:56:25;;;;;;;;;;;;;;;-3.28;88.42;100840.50;1703991;84;21131;-49
2020/12/12 04:58:53;;;;;;;0.40;0.40;;;;;;;-3.30;88.46;100846.01;1724314;82;20249;-50
2020/12/12 05:01:21;;;;;;;0.10;0.10;;;;;;;-3.30;88.54;100839.84;1709029;83;21159;-49
2020/12/12 05:03:49;;;;;;;0.20;0.20;;;;;;;-3.31;88.45;100840.86;1701022;84;21189;-49
2020/12/12 05:06:16;;;;;;;0.47;0.47;;;;;;;-3.33;88.30;100842.36;1671303;84;21250;-48
2020/12/12 05:08:44;;;;;;;0.20;0.20;;;;;;;-3.33;88.45;100837.53;1701439;84;21183;-50
2020/12/12 05:11:12;;;;;;;0.13;0.13;;;;;;;-3.32;88.46;100840.52;1701409;82;21517;-48
2020/12/12 05:13:40;;;;;;;0.10;0.10;;;;;;;-3.32;88.53;100841.85;1649640;84;21183;-48
2020/12/12 05:16:08;;;;;;;0.10;0.10;;;;;;;-3.31;88.57;100839.53;1700985;82;21238;-48
2020/12/12 05:18:35;;;;;;;1.35;0.42;;;;;;;-3.30;88.55;100843.84;1701550;84;21138;-50
2020/12/12 05:21:03;;;;;;;0.10;0.10;;;;;;;-3.30;88.52;100831.31;1701457;82;21175;-48
2020/12/12 05:23:31;;;;;;;0.80;0.80;;;;;;;-3.31;88.51;100832.84;1701469;84;21138;-48
2020/12/12 05:25:59;;;;;;;0.30;0.30;;;;;;;-3.31;88.47;100838.19;1649655;84;21609;-49
2020/12/12 05:28:27;;;;;;;0.10;0.10;;;;;;;-3.31;88.48;100847.55;1701358;84;21186;-49
2020/12/12 05:30:55;;;;;;;0.25;0.25;;;;;;;-3.30;88.55;100836.66;1701286;82;21564;-48
2020/12/12 05:33:24;;;;;;;0.00;0.00;;;;;;;-3.29;88.46;100836.14;1697982;84;21130;-49
2020/12/12 05:35:53;;;;;;;0.20;0.20;;;;;;;-3.30;88.26;100841.17;1701760;82;21163;-48
2020/12/12 05:38:21;;;;;;;0.20;0.20;;;;;;;-3.30;88.35;100831.82;1727487;83;21119;-48
2020/12/12 05:40:53;;;;;;;1.55;0.55;;;;;;;-3.30;88.42;100832.64;1688970;83;21166;-48
2020/12/12 05:43:21;;;;;;;0.10;0.10;;;;;;;-3.29;88.45;100822.78;1719239;83;21172;-49
2020/12/12 05:45:49;;;;;;;0.98;0.35;;;;;;;-3.26;88.45;100825.12;1668304;83;21157;-49
2020/12/12 05:48:16;;;;;;;0.40;0.40;;;;;;;-3.26;88.29;100825.12;1719068;83;21138;-48
2020/12/12 05:50:44;;;;;;;1.20;0.62;;;;;;;-3.26;88.17;100831.28;1719268;82;21157;-48
2020/12/12 05:53:12;;;;;;;0.28;0.28;;;;;;;-3.26;88.25;100825.94;1639207;86;21155;-47
2020/12/12 05:55:41;;;;;;;1.20;0.47;;;;;;;-3.25;88.33;100817.41;1663222;84;21581;-50
2020/12/12 05:58:09;;;;;;;0.47;0.47;;;;;;;-3.22;88.38;100824.23;1665444;86;21463;-49
2020/12/12 06:00:36;;;;;;;0.55;0.55;;;;;;;-3.21;88.39;100816.53;1638731;86;21231;-49
2020/12/12 06:03:12;;;;;;;1.75;0.45;;;;;;;-3.20;88.41;100821.71;1613731;86;21580;-49
2020/12/12 06:05:40;;;;;;;0.13;0.13;;;;;;;-3.18;88.37;100814.34;1638787;86;21185;-49
2020/12/12 06:08:07;;;;;;;0.75;0.37;;;;;;;-3.17;88.45;100820.52;1662911;84;21189;-49
2020/12/12 06:10:35;;;;;;;0.15;0.15;;;;;;;-3.16;88.44;100819.53;1617747;86;21444;-48
2020/12/12 06:13:05;;;;;;;0.10;0.10;;;;;;;-3.16;88.49;100818.19;1662601;86;21679;-48
2020/12/12 06:15:39;;;;;;;0.15;0.15;;;;;;;-3.16;88.50;100819.53;1661989;84;21184;-49
2020/12/12 06:18:16;;;;;;;0.10;0.10;;;;;;;-3.17;88.29;100832.03;1662034;86;21179;-49
2020/12/12 06:20:44;;;;;;;0.10;0.10;;;;;;;-3.18;88.07;100834.91;1658574;85;21143;-48
2020/12/12 06:23:13;;;;;;;0.10;0.10;;;;;;;-3.20;88.10;100839.59;1665641;84;21588;-48
2020/12/12 06:25:43;;;;;;;0.10;0.10;;;;;;;-3.22;88.01;100835.75;1665967;84;21614;-48
2020/12/12 06:28:23;;;;;;;1.55;0.47;;;;;;;-3.24;88.04;100847.13;1699660;83;21485;-48
2020/12/12 06:30:50;;;;;;;0.10;0.10;;;;;;;-3.23;88.05;100850.14;1679234;84;21569;-50
2020/12/12 06:33:18;;;;;;;0.23;0.17;;;;;;;-3.25;87.92;100832.11;1679195;84;21138;-48
2020/12/12 06:35:46;;;;;;;0.10;0.10;;;;;;;-3.26;87.90;100835.81;1704947;84;21181;-49
2020/12/12 06:38:25;;;;;;;0.17;0.17;;;;;;;-3.27;87.96;100834.13;1705017;84;21179;-50
2020/12/12 06:40:58;;;;;;;0.53;0.53;;;;;;;-3.25;88.08;100824.09;1705105;84;21167;-48
2020/12/12 06:43:35;;;;;;;0.10;0.10;;;;;;;-3.23;88.00;100827.42;1717583;83;21142;-49
2020/12/12 06:46:05;;;;;;;0.10;0.10;;;;;;;-3.21;88.03;100813.86;1717455;83;21158;-48
2020/12/12 06:48:33;;;;;;;0.10;0.10;;;;;;;-3.19;88.02;100814.03;1705088;84;21138;-49
2020/12/12 06:51:02;;;;;;;0.20;0.20;;;;;;;-3.18;88.05;100813.02;1717524;83;21145;-50
2020/12/12 06:53:31;;;;;;;0.20;0.20;;;;;;;-3.15;87.89;100815.31;1705002;84;21589;-49
2020/12/12 06:56:15;;;;;;;0.50;0.50;;;;;;;-3.12;87.87;100823.48;1705014;84;21221;-48
2020/12/12 06:58:43;;;;;;;0.10;0.10;;;;;;;-3.11;87.92;100820.64;1704984;84;21578;-48
2020/12/12 07:01:29;;;;;;;0.53;0.53;;;;;;;-3.10;87.79;100817.45;1705043;84;21153;-48
2020/12/12 07:04:05;;;;;;;0.35;0.35;;;;;;;-3.09;87.90;100819.95;1705090;84;21158;-48
2020/12/12 07:06:34;;;;;;;2.83;0.50;;;;;;;-3.07;87.90;100826.44;1705414;84;21152;-47
2020/12/12 07:09:07;;;;;;;0.10;0.10;;;;;;;-3.07;87.92;100829.94;1704840;84;21170;-47
2020/12/12 07:11:35;;;;;;;0.10;0.10;;;;;;;-3.06;88.08;100822.27;1705123;82;21159;-48
2020/12/12 07:14:03;;;;;;;0.10;0.10;;;;;;;-3.01;88.08;100824.91;1710422;83;21206;-48
2020/12/12 07:16:31;;;;;;;2.47;0.57;;;;;;;-2.99;88.02;100826.87;1722432;83;21160;-48
2020/12/12 07:18:59;;;;;;;0.10;0.10;;;;;;;-2.98;88.09;100827.21;1710339;83;21608;-47
2020/12/12 07:21:27;;;;;;;0.33;0.33;;;;;;;-2.96;88.08;100834.55;1717956;83;21523;-48
2020/12/12 07:23:55;;;;;;;0.42;0.42;;;;;;;-2.95;88.01;100836.20;1719658;83;21192;-48
2020/12/12 07:26:22;;;;;;;0.90;0.90;;;;;;;-2.96;88.02;100831.37;1722480;83;21146;-47
2020/12/12 07:28:50;;;;;;;0.42;0.42;;;;;;;-2.95;88.31;100830.85;1722500;83;21114;-47
2020/12/12 07:31:18;;;;;;;0.28;0.28;;;;;;;-2.92;88.46;100830.48;1722527;83;21130;-47
2020/12/12 07:33:47;;;;;;;0.20;0.20;;;;;;;-2.89;88.42;100825.62;1722359;83;21149;-48
2020/12/12 07:36:15;;;;;;;0.35;0.35;;;;;;;-2.90;88.00;100827.13;1681230;85;21178;-48
2020/12/12 07:38:42;;;;;;;0.10;0.10;;;;;;;-2.92;88.00;100819.27;1681029;85;21182;-48
2020/12/12 07:41:11;;;;;;;0.10;0.10;;;;;;;-2.92;88.22;100818.45;1697758;83;21178;-48
2020/12/12 07:43:53;;;;;;;0.15;0.15;;;;;;;-2.91;88.44;100820.13;1722388;83;21145;-48
2020/12/12 07:46:24;;;;;;;0.30;0.30;;;;;;;-2.89;88.56;100818.94;1710574;82;21182;-47
2020/12/12 07:49:00;;;;;;;0.10;0.10;;;;;;;-2.88;88.76;100811.22;1710320;83;21171;-48
2020/12/12 07:51:28;;;;;;;0.10;0.10;;;;;;;-2.86;88.76;100813.73;1710343;82;21470;-47
2020/12/12 07:53:55;;;;;;;0.23;0.23;;;;;;;-2.86;88.30;100820.41;1710283;83;21127;-48
2020/12/12 07:56:24;;;;;;;0.10;0.10;;;;;;;-2.86;88.57;100816.40;1716294;81;21157;-48
2020/12/12 07:59:02;;;;;;;0.13;0.13;;;;;;;-2.85;88.59;100808.69;1693418;84;21149;-47
2020/12/12 08:01:27;;;;;;;0.13;0.13;;;;;;;-2.83;88.56;100815.52;1693514;83;21248;-48
2020/12/12 08:03:55;;;;;;;0.30;0.30;;;;;;;-2.82;88.57;100809.65;1693664;84;21194;-48
2020/12/12 08:06:25;;;;;;;0.60;0.60;;;;;;;-2.82;88.69;100807.83;1692058;84;21151;-49
2020/12/12 08:08:55;;;;;;;0.40;0.40;;;;;;;-2.80;88.75;100804.95;1710427;83;21168;-48
2020/12/12 08:11:23;;;;;;;0.35;0.35;;;;;;;-2.77;88.59;100802.42;1710282;83;21191;-49
2020/12/12 08:13:51;;;;;;;0.10;0.10;;;;;;;-2.77;88.81;100801.91;1709593;83;21165;-48
2020/12/12 08:16:24;;;;;;;0.03;0.03;;;;;;;-2.73;88.96;100808.56;1709798;83;21170;-47
2020/12/12 08:18:49;;;;;;;1.00;0.85;;;;;;;-2.74;88.92;100791.38;1658255;85;21197;-47
2020/12/12 08:21:18;;;;;;;0.20;0.20;;;;;;;-2.73;88.95;100796.52;1681282;83;21210;-49
2020/12/12 08:23:46;;;;;;;2.62;1.37;;;;;;;-2.74;88.79;100790.04;1681184;85;21201;-48
2020/12/12 08:26:20;;;;;;;0.08;0.08;;;;;;;-2.76;88.87;100792.89;1681206;83;21162;-47
2020/12/12 08:28:48;;;;;;;0.20;0.20;;;;;;;-2.78;88.96;100793.57;1681357;85;21525;-47
2020/12/12 08:31:18;;;;;;;0.20;0.20;;;;;;;-2.80;89.08;100787.57;1681512;83;21198;-47
2020/12/12 08:33:55;;;;;;;1.20;1.12;;;;;;;-2.80;89.30;100790.24;1693440;84;21023;-48
2020/12/12 08:36:29;;;;;;;4.37;0.62;;;;;;;-2.81;89.50;100790.76;1681794;83;21150;-48
2020/12/12 08:39:04;;;;;;;0.30;0.30;;;;;;;-2.81;89.99;100788.59;1681768;85;21185;-49
2020/12/12 08:41:35;;;;;;;0.15;0.15;;;;;;;-2.80;90.04;100795.59;1681754;83;21153;-48
2020/12/12 08:44:24;;;;;;;1.32;1.22;;;;;;;-2.73;90.13;100800.53;1847192;76;29149;-50
2020/12/12 08:46:54;;;;;;;0.35;0.35;;;;;;;-2.76;90.21;100791.55;1787713;78;21166;-49
2020/12/12 08:49:23;;;;;;;0.35;0.35;;;;;;;-2.75;90.08;100790.52;1786003;80;21138;-49
2020/12/12 08:51:51;;;;;;;0.10;0.10;;;;;;;-2.72;90.06;100793.33;1785782;78;21166;-49
2020/12/12 08:54:19;;;;;;;0.10;0.10;;;;;;;-2.71;90.03;100788.33;1785677;80;21114;-49
2020/12/12 08:56:48;;;;;;;0.13;0.13;;;;;;;-2.68;89.83;100782.59;1785920;78;21138;-50
2020/12/12 08:59:19;;;;;;;0.05;0.05;;;;;;;-2.69;89.68;100781.77;1786169;80;21121;-49
2020/12/12 09:01:48;;;;;;;0.90;0.90;;;;;;;-2.68;89.72;100785.27;1785867;78;21142;-49
2020/12/12 09:04:20;;;;;;;2.30;0.90;;;;;;;-2.68;89.55;100768.71;1786120;80;21624;-49
2020/12/12 09:06:57;;;;;;;0.85;0.85;;;;;;;-2.66;89.55;100776.05;1786052;78;21122;-49
2020/12/12 09:09:30;;;;;;;0.10;0.10;;;;;;;-2.64;89.48;100779.37;1786161;80;21122;-50
2020/12/12 09:12:08;;;;;;;0.10;0.10;;;;;;;-2.61;89.51;100770.15;1785924;78;21125;-50
2020/12/12 09:14:38;;;;;;;0.35;0.35;;;;;;;-2.59;89.38;100773.47;1785955;78;21138;-51
2020/12/12 09:17:07;;;;;;;0.15;0.13;;;;;;;-2.57;89.15;100779.95;1785982;80;21145;-49
2020/12/12 09:19:38;;;;;;;0.08;0.08;;;;;;;-2.57;89.15;100775.95;1786152;78;21157;-49
2020/12/12 09:22:07;;;;;;;0.10;0.10;;;;;;;-2.57;89.04;100780.81;1785915;80;21217;-51
2020/12/12 09:24:35;;;;;;;0.42;0.42;;;;;;;-2.57;88.99;100773.27;1785978;80;21082;-50
2020/12/12 09:27:03;;;;;;;0.23;0.23;;;;;;;-2.60;88.78;100770.45;1786151;80;21591;-50
2020/12/12 09:29:30;;;;;;;0.10;0.10;;;;;;;-2.64;88.94;100782.05;1785946;80;21109;-49
2020/12/12 09:31:58;;;;;;;0.10;0.10;;;;;;;-2.68;88.89;100763.36;1785963;79;21584;-50
2020/12/12 09:34:26;;;;;;;0.17;0.17;;;;;;;-2.69;88.91;100764.90;1785923;80;21106;-50
2020/12/12 09:36:54;;;;;;;0.45;0.45;;;;;;;-2.71;89.02;100758.38;1785806;78;21157;-48
2020/12/12 09:39:21;;;;;;;0.33;0.33;;;;;;;-2.70;89.15;100756.02;1785734;80;21181;-50
2020/12/12 09:41:57;;;;;;;0.10;0.10;;;;;;;-2.69;89.06;100763.56;1785748;78;21129;-49
2020/12/12 09:44:34;;;;;;;0.10;0.10;;;;;;;-2.69;88.83;100752.34;1887679;76;29009;-48
2020/12/12 09:47:01;;;;;;;0.10;0.10;;;;;;;-2.76;88.85;100747.41;1858754;77;21068;-50
2020/12/12 09:49:29;;;;;;;0.78;0.78;;;;;;;-2.75;89.04;100753.58;1858478;77;21135;-50
2020/12/12 09:51:56;;;;;;;0.10;0.10;;;;;;;-2.73;89.09;100745.70;1858284;77;21399;-49
2020/12/12 09:54:24;;;;;;;0.10;0.10;;;;;;;-2.70;89.08;100739.97;1858350;77;21065;-50
2020/12/12 09:56:51;;;;;;;0.98;0.60;;;;;;;-2.66;89.12;100741.78;1858271;77;21115;-50
2020/12/12 09:59:19;;;;;;;0.68;0.62;;;;;;;-2.66;88.59;100736.44;1858351;77;21096;-49
2020/12/12 10:01:47;;;;;;;1.55;1.40;;;;;;;-2.67;88.74;100734.27;1858472;77;21099;-49
2020/12/12 10:04:15;;;;;;;0.68;0.68;;;;;;;-2.65;88.74;100726.04;1858328;77;21108;-49
2020/12/12 10:06:43;;;;;;;1.55;1.27;;;;;;;-2.65;88.58;100718.84;1858496;77;21135;-49
2020/12/12 10:09:11;;;;;;;0.93;0.93;;;;;;;-2.66;88.79;100717.70;1858252;77;21064;-49
2020/12/12 10:11:39;;;;;;;1.22;1.10;;;;;;;-2.65;88.90;100714.83;1858326;77;21955;-49
2020/12/12 10:14:07;;;;;;;0.00;0.00;;;;;;;-2.62;88.94;100711.80;1858261;77;21111;-50
2020/12/12 10:16:36;;;;;;;0.10;0.10;;;;;;;-2.57;88.96;100709.91;1854490;77;21092;-49
2020/12/12 10:19:04;;;;;;;0.53;0.53;;;;;;;-2.55;88.49;100704.35;1824875;78;21079;-50
2020/12/12 10:21:32;;;;;;;0.10;0.10;;;;;;;-2.54;88.55;100700.67;1824923;77;21079;-49
2020/12/12 10:23:59;;;;;;;0.20;0.20;;;;;;;-2.53;88.38;100705.00;1825036;78;21115;-49
2020/12/12 10:26:27;;;;;;;0.20;0.20;;;;;;;-2.56;87.83;100699.52;1824596;77;21163;-49
2020/12/12 10:28:55;;;;;;;0.10;0.10;;;;;;;-2.62;87.79;100699.77;1824571;78;21098;-50
2020/12/12 10:31:22;;;;;;;0.08;0.08;;;;;;;-2.64;87.99;100706.31;1824613;77;21099;-50
2020/12/12 10:33:50;;;;;;;0.10;0.10;;;;;;;-2.63;88.14;100702.09;1824577;78;21083;-50
2020/12/12 10:36:20;;;;;;;0.20;0.20;;;;;;;-2.61;88.17;100700.59;1823395;77;21127;-50
2020/12/12 10:38:49;;;;;;;0.30;0.30;;;;;;;-2.60;88.16;100700.41;1824519;78;21111;-50
2020/12/12 10:41:17;;;;;;;1.05;1.00;;;;;;;-2.56;88.20;100702.70;1824543;77;21144;-49
2020/12/12 10:43:45;;;;;;;0.10;0.10;;;;;;;-2.58;87.75;100702.88;1824474;78;21087;-49
2020/12/12 10:46:13;;;;;;;0.17;0.17;;;;;;;-2.62;87.65;100701.61;1824593;77;21122;-49
2020/12/12 10:48:41;;;;;;;0.10;0.10;;;;;;;-2.66;87.79;100711.84;1824594;78;21115;-48
2020/12/12 10:51:09;;;;;;;0.15;0.10;;;;;;;-2.67;87.89;100701.31;1824615;77;21126;-49
2020/12/12 10:53:37;;;;;;;0.28;0.28;;;;;;;-2.68;88.00;100696.48;1824553;78;21652;-49
2020/12/12 10:56:04;;;;;;;1.17;0.95;;;;;;;-2.70;88.10;100702.52;1824002;77;21071;-49
2020/12/12 10:58:32;;;;;;;0.65;0.33;;;;;;;-2.71;88.17;100705.40;1824066;78;21087;-49
2020/12/12 11:01:00;;;;;;;0.25;0.25;;;;;;;-2.71;88.29;100703.55;1824244;77;21482;-49
2020/12/12 11:03:28;;;;;;;0.42;0.42;;;;;;;-2.71;88.42;100706.22;1824238;78;21131;-49
2020/12/12 11:05:56;;;;;;;0.10;0.10;;;;;;;-2.72;88.50;100693.02;1824167;77;21127;-51
2020/12/12 11:08:24;;;;;;;0.10;0.10;;;;;;;-2.70;88.63;100697.16;1824369;78;21095;-50
2020/12/12 11:10:52;;;;;;;0.65;0.65;;;;;;;-2.69;88.71;100689.99;1824298;77;21410;-49
2020/12/12 11:13:20;;;;;;;1.55;0.85;;;;;;;-2.68;88.74;100705.02;1824212;78;21146;-49
2020/12/12 11:15:48;;;;;;;0.33;0.33;;;;;;;-2.68;88.87;100703.16;1824248;77;21115;-50
2020/12/12 11:18:15;;;;;;;4.83;1.27;;;;;;;-2.68;88.81;100697.81;1824317;77;21091;-50
2020/12/12 11:20:43;;;;;;;1.42;0.80;;;;;;;-2.69;88.81;100696.17;1824309;77;21082;-49
2020/12/12 11:23:11;;;;;;;0.15;0.15;;;;;;;-2.72;88.84;100705.91;1824226;78;21514;-49
2020/12/12 11:25:38;;;;;;;0.20;0.20;;;;;;;-2.76;88.99;100701.94;1824415;77;21379;-48
2020/12/12 11:28:06;;;;;;;0.30;0.30;;;;;;;-2.77;89.18;100702.94;1824116;78;21510;-49
2020/12/12 11:30:34;;;;;;;0.20;0.20;;;;;;;-2.77;89.27;100709.62;1824029;77;20987;-50
2020/12/12 11:33:04;;;;;;;0.23;0.23;;;;;;;-2.77;89.27;100710.14;1824107;78;21653;-51